Time;durP1;ratioP1;P1;durP2;ratioP2;P2;SDS_P1;SDS_P2;PMS_P1;PMS_P2;Temp;Humidity;BMP_temperature;BMP_pressure;BME280_temperature;BME280_humidity;BME280_pressure;Samples;Min_cycle;Max_cycle;Signal;HPM_P1;HPM_P2
2023/02/20 07:07:22;;;;;;;;;36.50;33.00;;;;;6.80;100.00;102612.53;5089734;23;49872;-71
2023/02/20 07:09:47;;;;;;;;;34.25;29.50;;;;;6.49;100.00;102557.44;4930649;28;51398;-77
2023/02/20 07:12:12;;;;;;;;;33.25;29.75;;;;;5.88;100.00;102488.13;4929921;28;49950;-74
2023/02/20 07:14:38;;;;;;;;;37.75;31.50;;;;;7.14;100.00;102669.56;4930622;28;49288;-80
2023/02/20 07:17:04;;;;;;;;;36.25;31.25;;;;;6.57;100.00;102565.78;4925903;28;49541;-69
2023/02/20 07:19:29;;;;;;;;;31.25;26.75;;;;;6.65;100.00;102601.06;4918948;28;49684;-79
2023/02/20 07:21:54;;;;;;;;;24.75;22.75;;;;;6.99;100.00;102625.09;4914101;28;50021;-76
2023/02/20 07:24:20;;;;;;;;;20.25;19.75;;;;;6.47;100.00;102534.66;4920804;28;49660;-72
2023/02/20 07:26:46;;;;;;;;;28.25;23.25;;;;;7.47;100.00;102729.22;4913868;28;49886;-70
2023/02/20 07:29:12;;;;;;;;;24.50;24.25;;;;;7.51;100.00;102735.53;4914897;28;49731;-73
2023/02/20 07:31:38;;;;;;;;;29.75;26.75;;;;;7.56;100.00;102713.25;4915141;28;50091;-73
2023/02/20 07:34:04;;;;;;;;;26.75;25.00;;;;;7.27;100.00;102648.66;4915265;28;49711;-71
2023/02/20 07:36:29;;;;;;;;;30.25;29.00;;;;;7.31;100.00;102682.00;4914394;28;49714;-76
2023/02/20 07:38:56;;;;;;;;;25.75;21.25;;;;;7.57;100.00;102706.31;4913827;28;50748;-78
2023/02/20 07:41:23;;;;;;;;;28.50;23.00;;;;;7.37;100.00;102664.13;4917191;28;49784;-74
2023/02/20 07:43:49;;;;;;;;;19.00;17.25;;;;;7.69;100.00;102712.28;4913783;28;49699;-70
2023/02/20 07:46:15;;;;;;;;;27.00;23.00;;;;;7.05;100.00;102598.47;4914757;28;49908;-74
2023/02/20 07:48:40;;;;;;;;;26.50;23.25;;;;;7.74;100.00;102705.66;4913388;28;50676;-69
2023/02/20 07:51:06;;;;;;;;;27.25;24.00;;;;;7.26;100.00;102612.00;4913773;28;49831;-74
2023/02/20 07:53:31;;;;;;;;;30.25;26.75;;;;;7.87;100.00;102708.22;4913121;28;49845;-73
2023/02/20 07:55:57;;;;;;;;;23.75;21.75;;;;;7.67;100.00;102678.22;4914389;28;49698;-68
2023/02/20 07:58:23;;;;;;;;;16.75;14.25;;;;;8.08;100.00;102741.75;4909196;28;49742;-67
2023/02/20 08:00:53;;;;;;;;;23.00;22.75;;;;;7.72;100.00;102675.88;4905325;28;49830;-72
2023/02/20 08:03:18;;;;;;;;;25.50;24.00;;;;;8.12;100.00;102752.53;4904734;28;50697;-71
2023/02/20 08:05:44;;;;;;;;;34.50;32.25;;;;;8.12;100.00;102743.78;4905852;28;49768;-64
2023/02/20 08:08:10;;;;;;;;;26.50;23.50;;;;;8.07;100.00;102726.88;4903348;28;50311;-62
2023/02/20 08:10:35;;;;;;;;;25.50;25.50;;;;;7.54;100.00;102640.78;4906441;28;49683;-70
2023/02/20 08:13:01;;;;;;;;;31.00;28.50;;;;;7.85;100.00;102696.78;4904913;28;49799;-68
2023/02/20 08:15:26;;;;;;;;;26.50;25.00;;;;;7.94;100.00;102722.59;4902712;28;50125;-63
2023/02/20 08:17:52;;;;;;;;;29.75;23.75;;;;;7.53;100.00;102621.59;4907952;28;50700;-64
2023/02/20 08:20:20;;;;;;;;;29.50;26.50;;;;;7.98;100.00;102707.19;4904336;28;49873;-63
2023/02/20 08:22:47;;;;;;;;;27.75;27.00;;;;;7.99;100.00;102702.84;4905710;28;49788;-66
2023/02/20 08:25:13;;;;;;;;;27.00;19.25;;;;;8.38;100.00;102753.25;4909550;28;50459;-67
2023/02/20 08:27:44;;;;;;;;;24.25;23.00;;;;;8.03;100.00;102694.41;4913073;28;49779;-67
2023/02/20 08:30:12;;;;;;;;;32.25;27.75;;;;;8.47;100.00;102759.94;4913262;28;49794;-70
2023/02/20 08:32:38;;;;;;;;;26.75;23.25;;;;;8.45;100.00;102751.09;4913101;28;49767;-66
2023/02/20 08:35:07;;;;;;;;;28.75;25.50;;;;;8.58;100.00;102756.25;4911890;28;49911;-65
2023/02/20 08:37:32;;;;;;;;;28.25;23.00;;;;;8.63;100.00;102746.09;4911897;28;50668;-64
2023/02/20 08:39:58;;;;;;;;;27.00;22.00;;;;;8.10;100.00;102659.03;4912528;28;49741;-65
2023/02/20 08:42:23;;;;;;;;;25.25;22.50;;;;;8.68;100.00;102755.09;4912845;28;49930;-67
2023/02/20 08:44:49;;;;;;;;;24.75;22.25;;;;;8.32;100.00;102678.78;4912372;28;49871;-65
2023/02/20 08:47:14;;;;;;;;;25.50;24.25;;;;;8.41;100.00;102695.88;4912457;28;50505;-64
2023/02/20 08:49:39;;;;;;;;;26.25;22.25;;;;;8.63;100.00;102713.78;4912262;28;49824;-65
2023/02/20 08:52:05;;;;;;;;;21.50;20.25;;;;;8.74;100.00;102715.31;4911650;28;49824;-65
2023/02/20 08:54:31;;;;;;;;;22.25;21.25;;;;;8.75;100.00;102744.19;4911238;28;49942;-66
2023/02/20 08:56:56;;;;;;;;;22.75;21.25;;;;;7.92;100.00;102612.69;4911219;28;50644;-65
2023/02/20 08:59:21;;;;;;;;;21.25;21.00;;;;;8.67;100.00;102700.03;4912188;28;49774;-67
2023/02/20 09:01:47;;;;;;;;;20.00;18.75;;;;;8.94;100.00;102756.66;4912503;28;49872;-66
2023/02/20 09:04:12;;;;;;;;;20.50;18.75;;;;;8.41;100.00;102643.53;4913831;28;50056;-69
2023/02/20 09:06:38;;;;;;;;;22.25;21.50;;;;;8.97;100.00;102750.69;4908932;28;49907;-70
2023/02/20 09:09:03;;;;;;;;;21.75;17.25;;;;;8.78;100.00;102696.31;4910273;28;49892;-65
2023/02/20 09:11:29;;;;;;;;;26.50;23.50;;;;;9.00;100.00;102717.75;4912521;28;49839;-78
2023/02/20 09:13:54;;;;;;;;;27.75;25.00;;;;;9.04;100.00;102724.06;4911678;28;49894;-76
2023/02/20 09:16:22;;;;;;;;;24.75;22.00;;;;;8.70;100.00;102642.63;4912319;28;51088;-76
2023/02/20 09:18:48;;;;;;;;;22.25;19.50;;;;;8.87;100.00;102661.09;4911981;28;49853;-70
2023/02/20 09:21:17;;;;;;;;;30.00;26.00;;;;;9.35;100.00;102732.84;4911861;28;49913;-68
2023/02/20 09:23:43;;;;;;;;;30.50;26.75;;;;;8.58;100.00;102588.72;4913092;28;49632;-67
2023/02/20 09:26:09;;;;;;;;;28.25;26.75;;;;;9.21;100.00;102720.69;4914072;28;49958;-65
2023/02/20 09:28:35;;;;;;;;;27.50;27.50;;;;;8.64;100.00;102582.06;4912649;28;49809;-71
2023/02/20 09:31:01;;;;;;;;;29.75;27.75;;;;;8.89;100.00;102635.03;4911021;28;49816;-70
2023/02/20 09:33:27;;;;;;;;;29.75;22.50;;;;;9.79;100.00;102746.69;4911776;28;49581;-72
2023/02/20 09:35:53;;;;;;;;;31.75;26.25;;;;;9.77;100.00;102715.13;4910385;28;50996;-74
2023/02/20 09:38:21;;;;;;;;;22.50;22.50;;;;;9.71;100.00;102705.19;4909571;28;49826;-72
2023/02/20 09:40:52;;;;;;;;;37.50;29.00;;;;;9.92;100.00;102731.69;4910229;28;49859;-76
2023/02/20 09:43:40;;;;;;;;;28.25;24.00;;;;;9.88;100.00;102711.38;4912224;28;49832;-65
2023/02/20 09:46:14;;;;;;;;;28.25;24.50;;;;;9.87;100.00;102703.41;4914062;28;49766;-68
2023/02/20 09:48:54;;;;;;;;;26.00;24.25;;;;;10.08;100.00;102727.28;4914402;28;49739;-73
2023/02/20 09:51:23;;;;;;;;;23.00;21.75;;;;;10.07;100.00;102708.00;4915529;28;49742;-78
2023/02/20 09:53:56;;;;;;;;;14.00;13.25;;;;;9.59;100.00;102602.25;4918203;28;49631;-77
2023/02/20 09:56:32;;;;;;;;;19.50;16.00;;;;;9.90;100.00;102657.25;4911064;28;51088;-73
2023/02/20 09:59:08;;;;;;;;;25.50;23.25;;;;;9.20;100.00;102553.81;4920821;28;49688;-83
2023/02/20 10:01:36;;;;;;;;;27.25;26.25;;;;;10.38;100.00;102720.19;4907600;28;49571;-77
2023/02/20 10:04:17;;;;;;;;;31.00;26.50;;;;;9.77;100.00;102628.56;4904256;28;49762;-76
2023/02/20 10:06:45;;;;;;;;;28.75;27.00;;;;;9.81;100.00;102627.00;4903212;28;50678;-78
2023/02/20 10:09:13;;;;;;;;;24.75;24.25;;;;;9.18;100.00;102527.53;4905832;28;49789;-73
2023/02/20 10:12:10;;;;;;;;;27.75;25.75;;;;;10.44;100.00;102734.53;4911278;28;49734;-75
2023/02/20 10:15:01;;;;;;;;;32.25;31.75;;;;;10.36;100.00;102730.59;4908069;28;49811;-72
2023/02/20 10:17:50;;;;;;;;;30.00;29.50;;;;;9.91;100.00;102682.66;4913185;28;51748;-75
2023/02/20 10:20:40;;;;;;;;;24.00;23.75;;;;;10.17;100.00;102735.66;4905783;28;50071;-72
2023/02/20 10:23:17;;;;;;;;;31.50;29.00;;;;;10.26;100.00;102729.22;4905903;28;49806;-76
2023/02/20 10:25:51;;;;;;;;;28.50;25.75;;;;;9.93;100.00;102669.63;4913689;28;49809;-84
2023/02/20 10:28:27;;;;;;;;;27.25;23.00;;;;;10.28;100.00;102747.66;4916525;28;50853;-80
2023/02/20 10:31:04;;;;;;;;;21.25;21.25;;;;;10.24;100.00;102727.34;4914014;28;49940;-75
2023/02/20 10:33:41;;;;;;;;;20.50;19.00;;;;;7.27;100.00;102232.41;4915948;28;50243;-80
2023/02/20 10:36:07;;;;;;;;;27.00;20.75;;;;;10.36;100.00;102734.94;4912380;28;50024;-83
2023/02/20 10:38:45;;;;;;;;;26.25;21.75;;;;;9.63;100.00;102591.09;4914935;28;50435;-80
2023/02/20 10:41:34;;;;;;;;;19.50;19.50;;;;;9.50;100.00;102538.84;4923400;28;49758;-78
2023/02/20 10:44:26;;;;;;;;;22.75;20.75;;;;;10.60;100.00;102734.50;4912234;28;49883;-82
2023/02/20 10:46:58;;;;;;;;;24.25;19.50;;;;;10.62;100.00;102741.59;4916216;28;49931;-81
2023/02/20 10:49:46;;;;;;;;;20.75;19.00;;;;;10.55;100.00;102722.88;4915295;28;51041;-79
2023/02/20 10:52:21;;;;;;;;;20.25;18.00;;;;;8.97;100.00;102483.50;4911225;28;50047;-79
2023/02/20 10:55:01;;;;;;;;;17.75;17.75;;;;;10.11;100.00;102653.97;4914671;28;49982;-77
2023/02/20 10:57:44;;;;;;;;;19.00;19.00;;;;;9.02;100.00;102497.78;4914069;28;49548;-79
2023/02/20 11:00:19;;;;;;;;;22.25;21.50;;;;;10.72;100.00;102725.47;4914959;28;49766;-78
2023/02/20 11:02:50;;;;;;;;;21.75;18.25;;;;;9.61;100.00;102570.88;4914935;28;49704;-81
2023/02/20 11:05:21;;;;;;;;;24.25;18.50;;;;;9.66;100.00;102578.16;4914569;28;49876;-80
2023/02/20 11:07:48;;;;;;;;;20.75;19.00;;;;;10.86;100.00;102725.34;4914690;28;49775;-79
2023/02/20 11:10:13;;;;;;;;;19.50;18.50;;;;;9.92;100.00;102553.28;4914594;28;50743;-78
2023/02/20 11:12:50;;;;;;;;;18.50;14.75;;;;;10.23;100.00;102629.31;4913196;28;49706;-79
2023/02/20 11:15:21;;;;;;;;;19.75;19.00;;;;;9.75;100.00;102501.69;4914495;28;49782;-80
2023/02/20 11:17:50;;;;;;;;;16.25;16.25;;;;;9.66;100.00;102469.75;4913502;28;50170;-79
2023/02/20 11:20:34;;;;;;;;;21.75;21.00;;;;;11.25;100.00;102715.00;4914010;28;50792;-79
2023/02/20 11:23:01;;;;;;;;;21.25;20.00;;;;;10.89;100.00;102637.88;4913344;28;49614;-80
2023/02/20 11:25:34;;;;;;;;;19.50;19.50;;;;;11.27;100.00;102702.84;4916668;28;49925;-79
2023/02/20 11:28:21;;;;;;;;;22.50;20.00;;;;;11.21;100.00;102697.28;4915792;28;50024;-78
2023/02/20 11:30:57;;;;;;;;;24.50;21.25;;;;;10.23;100.00;102528.63;4909095;28;49782;-85
2023/02/20 11:33:29;;;;;;;;;20.75;19.00;;;;;10.28;100.00;102517.56;4906082;28;49649;-74
2023/02/20 11:36:00;;;;;;;;;20.25;19.75;;;;;10.66;100.00;102580.69;4904839;28;49903;-78
2023/02/20 11:38:30;;;;;;;;;22.50;21.00;;;;;10.34;100.00;102510.84;4906282;28;50200;-73
2023/02/20 11:40:59;;;;;;;;;19.75;19.00;;;;;11.26;100.00;102687.00;4905559;28;50025;-66
2023/02/20 11:43:28;;;;;;;;;21.50;16.25;;;;;11.37;100.00;102691.94;4904301;28;50169;-67
2023/02/20 11:46:06;;;;;;;;;18.00;18.00;;;;;11.32;100.00;102654.00;4907439;28;49958;-69
2023/02/20 11:48:31;;;;;;;;;13.50;12.00;;;;;11.16;100.00;102606.78;4907531;28;50003;-73
2023/02/20 11:50:57;;;;;;;;;15.25;15.25;;;;;11.55;100.00;102648.94;4905879;28;49949;-70
2023/02/20 11:53:28;;;;;;;;;17.00;13.00;;;;;11.71;100.00;102672.50;4904409;28;49926;-72
2023/02/20 11:56:14;;;;;;;;;20.00;16.00;;;;;11.71;100.00;102669.88;4906922;28;49801;-73
2023/02/20 11:58:41;;;;;;;;;14.50;14.00;;;;;11.21;100.00;102563.22;4907875;28;49888;-72
2023/02/20 12:01:29;;;;;;;;;15.00;14.75;;;;;11.68;100.00;102640.81;4916884;28;50014;-70
2023/02/20 12:03:56;;;;;;;;;15.50;15.50;;;;;11.67;100.00;102647.75;4913196;28;49944;-71
2023/02/20 12:06:35;;;;;;;;;21.25;21.00;;;;;11.90;100.00;102655.88;4911779;28;49814;-70
2023/02/20 12:09:10;;;;;;;;;19.50;17.75;;;;;11.60;100.00;102614.13;4907814;28;51193;-71
2023/02/20 12:11:36;;;;;;;;;17.25;15.75;;;;;11.52;100.00;102588.31;4909587;28;50173;-71
2023/02/20 12:14:02;;;;;;;;;18.50;18.00;;;;;11.49;100.00;102594.34;4906133;28;49801;-70
2023/02/20 12:16:33;;;;;;;;;19.00;19.00;;;;;11.77;100.00;102643.81;4905463;28;49917;-69
2023/02/20 12:19:35;;;;;;;;;13.25;13.25;;;;;11.51;100.00;102581.25;4905869;28;50652;-71
2023/02/20 12:22:19;;;;;;;;;20.50;20.50;;;;;11.92;100.00;102627.88;4902798;28;50794;-69
2023/02/20 12:24:44;;;;;;;;;15.75;15.00;;;;;11.53;100.00;102562.06;4906360;28;50019;-73
2023/02/20 12:27:28;;;;;;;;;21.00;16.00;;;;;11.87;100.00;102613.59;4911495;28;49960;-70
2023/02/20 12:30:03;;;;;;;;;15.50;15.50;;;;;11.81;100.00;102615.97;4913773;28;49801;-71
2023/02/20 12:32:47;;;;;;;;;17.75;17.00;;;;;11.39;100.00;102573.69;4920624;28;50467;-71
2023/02/20 12:35:32;;;;;;;;;27.50;22.25;;;;;11.39;100.00;102606.16;4912732;28;49711;-72
2023/02/20 12:38:32;;;;;;;;;14.75;14.25;;;;;11.37;100.00;102605.16;4914916;28;50035;-73
2023/02/20 12:41:15;;;;;;;;;23.75;20.00;;;;;11.32;100.00;102584.75;4912498;28;49696;-72
2023/02/20 12:43:53;;;;;;;;;21.25;20.75;;;;;11.26;100.00;102587.97;4911859;28;50515;-67
2023/02/20 12:46:29;;;;;;;;;24.75;22.75;;;;;11.12;100.00;102589.06;4909316;28;49831;-66
2023/02/20 12:49:16;;;;;;;;;23.00;22.25;;;;;10.93;100.00;102584.66;4915521;28;50000;-70
2023/02/20 12:51:51;;;;;;;;;21.00;19.25;;;;;10.89;100.00;102586.22;4913175;28;49901;-70
2023/02/20 12:54:51;;;;;;;;;27.25;23.25;;;;;10.75;100.00;102554.88;4912480;28;49665;-68
2023/02/20 12:57:43;;;;;;;;;23.75;20.25;;;;;10.82;100.00;102572.75;4912040;28;50001;-70
2023/02/20 13:00:31;;;;;;;;;17.75;16.50;;;;;10.40;100.00;102501.50;4912804;28;49698;-71
2023/02/20 13:03:06;;;;;;;;;21.75;17.00;;;;;10.81;100.00;102565.69;4908756;28;50018;-71
2023/02/20 13:05:34;;;;;;;;;18.00;18.00;;;;;10.30;100.00;102479.16;4911952;28;50490;-69
2023/02/20 13:08:10;;;;;;;;;26.00;21.25;;;;;10.26;100.00;102465.81;4913385;28;49948;-74
2023/02/20 13:10:49;;;;;;;;;24.25;21.25;;;;;10.21;100.00;102467.28;4911306;28;50173;-75
2023/02/20 13:13:15;;;;;;;;;22.00;17.50;;;;;10.11;100.00;102434.44;4913074;28;49944;-74
2023/02/20 13:15:55;;;;;;;;;21.50;21.50;;;;;10.55;100.00;102506.63;4912768;28;50822;-72
2023/02/20 13:18:37;;;;;;;;;19.00;18.00;;;;;10.20;100.00;102434.88;4912495;28;50040;-76
2023/02/20 13:21:09;;;;;;;;;20.25;17.75;;;;;10.70;100.00;102519.59;4917415;28;49795;-68
2023/02/20 13:23:36;;;;;;;;;23.25;22.50;;;;;10.54;100.00;102502.19;4914670;28;50035;-76
2023/02/20 13:26:22;;;;;;;;;22.00;20.50;;;;;10.76;100.00;102533.03;4906485;28;50892;-69
2023/02/20 13:28:48;;;;;;;;;17.50;15.50;;;;;10.29;100.00;102437.09;4908468;28;49940;-72
2023/02/20 13:31:20;;;;;;;;;16.00;16.00;;;;;10.29;100.00;102440.63;4916021;28;49957;-73
2023/02/20 13:33:49;;;;;;;;;25.75;21.50;;;;;10.88;100.00;102520.47;4916931;28;49985;-76
2023/02/20 13:36:38;;;;;;;;;23.75;19.00;;;;;10.92;100.00;102511.03;4914971;28;50631;-75
2023/02/20 13:39:21;;;;;;;;;17.50;16.50;;;;;10.94;100.00;102515.50;4911707;28;49731;-76
2023/02/20 13:41:52;;;;;;;;;15.00;15.00;;;;;10.97;100.00;102510.38;4916395;28;49884;-76
2023/02/20 13:44:27;;;;;;;;;19.00;19.00;;;;;11.01;100.00;102498.31;4915340;28;49887;-77
2023/02/20 13:46:57;;;;;;;;;21.50;19.75;;;;;10.57;100.00;102413.94;4908487;28;49845;-77
2023/02/20 13:49:44;;;;;;;;;16.00;14.75;;;;;11.07;100.00;102496.84;4911890;28;49799;-78
2023/02/20 13:52:28;;;;;;;;;17.00;17.00;;;;;11.14;100.00;102488.44;4908677;28;49843;-77
2023/02/20 13:55:01;;;;;;;;;21.00;17.25;;;;;11.10;100.00;102468.09;4915767;28;49640;-74
2023/02/20 13:57:32;;;;;;;;;19.25;16.75;;;;;10.75;100.00;102392.00;4915276;28;49947;-74
2023/02/20 13:59:59;;;;;;;;;16.50;14.75;;;;;10.09;100.00;102289.13;4915788;28;50018;-75
2023/02/20 14:02:29;;;;;;;;;15.75;14.75;;;;;11.28;100.00;102491.66;4915401;28;49809;-75
2023/02/20 14:05:00;;;;;;;;;13.50;13.00;;;;;10.47;100.00;102324.19;4915709;28;49641;-73
2023/02/20 14:07:36;;;;;;;;;17.00;16.50;;;;;10.69;100.00;102357.56;4915127;28;49991;-71
2023/02/20 14:10:12;;;;;;;;;14.00;14.00;;;;;11.29;100.00;102432.09;4915095;28;49897;-71
2023/02/20 14:12:38;;;;;;;;;19.25;15.00;;;;;10.96;100.00;102397.34;4915225;28;49905;-73
2023/02/20 14:15:05;;;;;;;;;22.50;16.00;;;;;11.13;100.00;102391.09;4914214;28;49680;-71
2023/02/20 14:17:31;;;;;;;;;13.75;13.75;;;;;10.24;100.00;102252.25;4909126;28;50771;-73
2023/02/20 14:19:59;;;;;;;;;16.25;13.25;;;;;9.75;100.00;102160.78;4915011;28;49991;-73
2023/02/20 14:22:28;;;;;;;;;13.25;13.25;;;;;11.56;100.00;102430.69;4915466;28;49913;-73
2023/02/20 14:25:20;;;;;;;;;20.75;17.75;;;;;11.60;100.00;102429.09;4913964;28;50172;-73
2023/02/20 14:27:46;;;;;;;;;14.75;14.50;;;;;11.12;100.00;102349.88;4915056;28;49652;-74
2023/02/20 14:30:21;;;;;;;;;10.75;10.00;;;;;10.86;100.00;102290.94;4914915;28;50324;-74
2023/02/20 14:32:52;;;;;;;;;15.50;14.75;;;;;10.92;100.00;102290.31;4912383;28;49760;-77
2023/02/20 14:35:39;;;;;;;;;17.50;14.25;;;;;11.34;100.00;102349.06;4914881;28;49635;-79
2023/02/20 14:38:16;;;;;;;;;10.25;10.25;;;;;11.76;100.00;102416.63;4914940;28;50504;-81
2023/02/20 14:40:43;;;;;;;;;15.75;15.75;;;;;11.20;100.00;102306.44;4915142;28;49991;-77
2023/02/20 14:43:15;;;;;;;;;12.50;11.50;;;;;11.10;100.00;102284.13;4915185;28;49787;-79
2023/02/20 14:45:43;;;;;;;;;14.00;14.00;;;;;11.42;100.00;102350.31;4915030;28;49891;-79
2023/02/20 14:48:23;;;;;;;;;14.00;12.25;;;;;11.24;100.00;102300.47;4914712;28;49917;-75
2023/02/20 14:51:11;;;;;;;;;14.00;13.25;;;;;10.82;100.00;102246.97;4914271;28;49742;-75
2023/02/20 14:53:37;;;;;;;;;14.50;14.50;;;;;10.92;100.00;102266.66;4913545;28;49827;-79
2023/02/20 14:56:10;;;;;;;;;14.00;12.75;;;;;11.49;100.00;102325.19;4907135;28;49962;-76
2023/02/20 14:58:39;;;;;;;;;17.25;16.00;;;;;11.70;100.00;102370.78;4918224;28;49877;-79
2023/02/20 15:01:37;;;;;;;;;15.50;15.50;;;;;10.83;100.00;102236.53;4915460;28;49735;-81
2023/02/20 15:04:16;;;;;;;;;14.25;14.25;;;;;11.70;100.00;102357.63;4907900;28;50113;-77
2023/02/20 15:06:45;;;;;;;;;18.75;14.50;;;;;11.37;100.00;102300.13;4912570;28;49900;-77
2023/02/20 15:09:12;;;;;;;;;15.25;14.75;;;;;11.58;100.00;102347.50;4917116;28;51270;-75
2023/02/20 15:11:58;;;;;;;;;18.25;15.75;;;;;11.04;100.00;102249.69;4913576;28;49817;-77
2023/02/20 15:14:28;;;;;;;;;18.50;16.25;;;;;10.63;100.00;102224.25;4915247;28;49762;-79
2023/02/20 15:17:12;;;;;;;;;13.25;13.00;;;;;11.69;100.00;102358.47;4906419;28;49788;-73
2023/02/20 15:19:40;;;;;;;;;16.00;15.75;;;;;11.56;100.00;102337.72;4909410;28;49908;-74
2023/02/20 15:22:24;;;;;;;;;19.50;16.25;;;;;11.32;100.00;102293.81;4913111;28;49774;-74
2023/02/20 15:24:49;;;;;;;;;16.00;14.50;;;;;11.66;100.00;102345.16;4915965;28;49756;-74
2023/02/20 15:27:18;;;;;;;;;15.75;12.00;;;;;11.50;100.00;102325.25;4915387;28;50172;-74
2023/02/20 15:29:45;;;;;;;;;14.00;13.50;;;;;11.63;100.00;102345.06;4916937;28;49799;-75
2023/02/20 15:32:24;;;;;;;;;18.00;17.75;;;;;11.60;100.00;102340.56;4914186;28;49743;-75
2023/02/20 15:34:58;;;;;;;;;15.75;15.00;;;;;11.35;100.00;102304.44;4914244;28;49838;-75
2023/02/20 15:37:28;;;;;;;;;20.50;18.00;;;;;11.03;100.00;102249.63;4914178;28;50339;-74
2023/02/20 15:39:54;;;;;;;;;13.50;11.75;;;;;11.37;100.00;102307.13;4913806;28;50905;-75
2023/02/20 15:42:22;;;;;;;;;16.50;15.75;;;;;11.31;100.00;102296.38;4913842;28;49905;-75
2023/02/20 15:44:49;;;;;;;;;16.50;16.50;;;;;11.43;100.00;102304.78;4912445;28;49995;-74
2023/02/20 15:47:15;;;;;;;;;16.25;15.25;;;;;10.84;100.00;102208.53;4914033;28;50139;-74
2023/02/20 15:49:41;;;;;;;;;18.50;16.75;;;;;10.13;100.00;102086.38;4912246;28;51257;-74
2023/02/20 15:52:15;;;;;;;;;17.75;16.00;;;;;11.33;100.00;102299.97;4913676;28;49886;-74
2023/02/20 15:54:40;;;;;;;;;16.50;16.25;;;;;10.99;100.00;102253.84;4913870;28;49834;-75
2023/02/20 15:57:16;;;;;;;;;15.50;15.50;;;;;10.90;100.00;102221.91;4912729;28;50043;-75
2023/02/20 15:59:43;;;;;;;;;14.75;14.75;;;;;10.77;100.00;102209.09;4913723;28;51070;-75
2023/02/20 16:02:14;;;;;;;;;18.75;16.50;;;;;11.44;100.00;102314.44;4913680;28;49866;-75
2023/02/20 16:04:39;;;;;;;;;16.75;15.50;;;;;11.24;100.00;102275.91;4913340;28;49850;-74
2023/02/20 16:07:05;;;;;;;;;21.75;20.25;;;;;11.02;100.00;102238.22;4913403;28;50191;-74
2023/02/20 16:09:30;;;;;;;;;16.00;16.00;;;;;11.22;100.00;102273.22;4913611;28;50886;-74
2023/02/20 16:11:56;;;;;;;;;15.75;15.75;;;;;11.18;100.00;102258.13;4913454;28;49818;-74
2023/02/20 16:14:22;;;;;;;;;14.50;10.50;;;;;11.36;100.00;102293.09;4913817;28;49935;-74
2023/02/20 16:16:51;;;;;;;;;14.50;13.50;;;;;11.22;100.00;102274.97;4913767;28;49942;-75
2023/02/20 16:19:20;;;;;;;;;17.00;17.00;;;;;11.09;100.00;102245.50;4913276;28;50974;-75
2023/02/20 16:21:46;;;;;;;;;19.25;17.50;;;;;11.32;100.00;102285.91;4913038;28;49665;-75
2023/02/20 16:24:12;;;;;;;;;17.00;12.25;;;;;11.30;100.00;102284.97;4913156;28;49672;-74
2023/02/20 16:26:40;;;;;;;;;16.75;15.50;;;;;11.21;100.00;102267.91;4913742;28;49701;-74
2023/02/20 16:29:16;;;;;;;;;18.00;16.50;;;;;11.17;100.00;102264.22;4913513;28;49922;-73
2023/02/20 16:31:53;;;;;;;;;15.75;14.00;;;;;11.25;100.00;102285.59;4913286;28;49985;-74
2023/02/20 16:34:24;;;;;;;;;15.50;14.25;;;;;11.07;100.00;102256.78;4913282;28;49920;-74
2023/02/20 16:36:51;;;;;;;;;15.25;15.25;;;;;10.79;100.00;102217.94;4913726;28;49794;-74
2023/02/20 16:39:17;;;;;;;;;19.75;16.00;;;;;10.56;100.00;102182.81;4911460;28;52550;-74
2023/02/20 16:41:43;;;;;;;;;18.75;15.75;;;;;10.49;100.00;102173.75;4911937;28;49962;-74
2023/02/20 16:44:14;;;;;;;;;17.50;15.25;;;;;10.97;100.00;102262.50;4911717;28;49807;-74
2023/02/20 16:46:39;;;;;;;;;14.25;14.25;;;;;11.07;100.00;102290.97;4913288;28;49540;-74
2023/02/20 16:49:05;;;;;;;;;19.50;16.75;;;;;10.63;100.00;102219.00;4913011;28;50505;-73
2023/02/20 16:51:30;;;;;;;;;17.75;17.75;;;;;10.67;100.00;102236.69;4912696;28;49490;-73
2023/02/20 16:53:56;;;;;;;;;22.25;16.75;;;;;10.98;100.00;102301.97;4911998;28;49799;-73
2023/02/20 16:56:22;;;;;;;;;12.50;7.75;;;;;10.48;100.00;102210.44;4911012;28;50045;-77
2023/02/20 16:58:47;;;;;;;;;17.75;17.75;;;;;10.64;100.00;102239.19;4912509;28;50119;-74
2023/02/20 17:01:12;;;;;;;;;21.75;18.25;;;;;10.70;100.00;102252.56;4913019;28;49755;-73
2023/02/20 17:03:38;;;;;;;;;21.25;16.75;;;;;10.48;100.00;102224.47;4912991;28;49736;-73
2023/02/20 17:06:03;;;;;;;;;19.00;15.50;;;;;10.13;100.00;102175.59;4911120;28;49957;-73
2023/02/20 17:08:29;;;;;;;;;21.25;14.75;;;;;10.34;100.00;102217.72;4906351;28;52284;-71
2023/02/20 17:10:54;;;;;;;;;20.50;19.00;;;;;10.52;100.00;102259.66;4912599;28;49998;-74
2023/02/20 17:13:19;;;;;;;;;15.25;14.00;;;;;10.18;100.00;102209.94;4912615;28;49661;-74
2023/02/20 17:15:46;;;;;;;;;23.00;16.25;;;;;9.88;100.00;102193.69;4912798;28;49750;-74
2023/02/20 17:18:12;;;;;;;;;25.50;18.75;;;;;10.02;100.00;102203.09;4912425;28;51004;-74
2023/02/20 17:20:38;;;;;;;;;19.00;18.25;;;;;9.65;100.00;102184.72;4911861;28;49561;-74
2023/02/20 17:23:04;;;;;;;;;21.50;18.25;;;;;9.76;100.00;102178.28;4911680;28;50036;-72
2023/02/20 17:25:30;;;;;;;;;15.50;15.50;;;;;9.55;100.00;102177.25;4912030;28;49589;-74
2023/02/20 17:27:56;;;;;;;;;19.75;18.50;;;;;10.16;100.00;102296.47;4912137;28;49811;-74
2023/02/20 17:30:23;;;;;;;;;22.00;22.00;;;;;9.46;100.00;102162.03;4912258;28;49820;-74
2023/02/20 17:32:49;;;;;;;;;27.00;24.00;;;;;9.51;100.00;102178.84;4912663;28;49918;-78
2023/02/20 17:35:15;;;;;;;;;24.25;22.25;;;;;9.15;100.00;102134.31;4913123;28;49707;-80
2023/02/20 17:37:41;;;;;;;;;29.25;25.50;;;;;9.69;100.00;102218.16;4912423;28;49938;-76
2023/02/20 17:40:07;;;;;;;;;26.00;23.25;;;;;9.23;100.00;102188.84;4914623;28;49967;-88
2023/02/20 17:42:32;;;;;;;;;31.75;24.00;;;;;9.83;100.00;102285.25;4915862;28;49747;-85
2023/02/20 17:44:59;;;;;;;;;27.75;24.50;;;;;9.79;100.00;102277.19;4915120;28;49737;-84
2023/02/20 17:47:25;;;;;;;;;28.75;25.75;;;;;9.63;100.00;102250.22;4912567;28;51464;-83
2023/02/20 17:49:51;;;;;;;;;25.75;22.75;;;;;9.87;100.00;102299.44;4911891;28;49618;-78
2023/02/20 17:52:18;;;;;;;;;24.50;20.00;;;;;9.84;100.00;102296.66;4904339;28;50171;-77
2023/02/20 17:54:46;;;;;;;;;24.75;20.75;;;;;9.57;100.00;102251.66;4912013;28;49723;-76
2023/02/20 17:57:12;;;;;;;;;28.50;24.00;;;;;9.60;100.00;102263.19;4911439;28;50548;-75
2023/02/20 17:59:39;;;;;;;;;25.25;24.75;;;;;9.33;100.00;102218.19;4910949;28;49701;-75
2023/02/20 18:02:06;;;;;;;;;30.75;29.25;;;;;9.23;100.00;102209.78;4911998;28;49962;-77
2023/02/20 18:04:32;;;;;;;;;30.50;27.00;;;;;9.51;100.00;102278.47;4912249;28;50016;-76
2023/02/20 18:06:57;;;;;;;;;22.75;17.50;;;;;9.42;100.00;102260.56;4912824;28;50907;-74
2023/02/20 18:09:23;;;;;;;;;19.50;18.50;;;;;9.25;100.00;102235.25;4915246;28;49776;-76
2023/02/20 18:11:50;;;;;;;;;20.00;20.00;;;;;9.33;100.00;102260.09;4915118;28;50081;-76
2023/02/20 18:14:15;;;;;;;;;26.25;23.75;;;;;9.47;100.00;102284.41;4913495;28;49722;-76
2023/02/20 18:16:41;;;;;;;;;25.00;23.00;;;;;9.18;100.00;102254.13;4915035;28;49849;-76
2023/02/20 18:19:09;;;;;;;;;23.50;21.00;;;;;9.17;100.00;102255.84;4915335;28;49770;-77
2023/02/20 18:21:36;;;;;;;;;23.75;21.75;;;;;9.17;100.00;102258.47;4913103;28;50036;-74
2023/02/20 18:24:03;;;;;;;;;25.75;23.25;;;;;8.89;100.00;102206.41;4914964;28;49621;-76
2023/02/20 18:26:29;;;;;;;;;27.25;25.00;;;;;9.03;100.00;102237.63;4914766;28;49872;-75
2023/02/20 18:28:54;;;;;;;;;21.50;21.50;;;;;8.85;100.00;102209.66;4915016;28;49747;-74